Meath Environmental Platform

Observations for Trim Patrick St

Time AQI Temp °C Hum % Pres Pa CO μg/m³ H₂S μg/m³ NO μg/m³ NO₂ μg/m³ O₃ μg/m³ SO₂ μg/m³ PM1 μg/m³ PM2.5 μg/m³ PM10 μg/m³
Saturday 8 August 2026
15:04 2 31.5 34 69,328 0 0 0.77 10.83 68.16 15.19 2.86 8.25 9.08
15:03 2 31.4 35 69,306 0 0 0.74 10.45 80.46 15.14 2.86 8.98 9.87
15:02 2 31.3 34 69,306 0 0 0.79 11.53 74.27 14 2 7.4 8.14
15:01 2 31.1 34 69,312 0 0 0.82 11.24 73.49 14.63 2.86 8.2 9.02
15:00 2 31.1 35 69,318 0 0 0.8 11.31 96.27 15.19 2.86 8.94 9.84
14:59 2 31 34 69,296 0 0 0.84 11.82 73.82 13.81 2.86 8.22 9.04
14:58 2 30.9 34 69,304 0 0 0.83 10.98 86.02 14.49 2 8.19 9.01
14:57 2 30.9 34 69,312 0 0 0.81 13.92 101.38 15.3 2.86 8.19 9.01
14:56 2 30.9 34 69,294 0 0 0.8 10.75 66.63 14.89 2 7.42 8.16
14:55 2 30.9 34 69,300 0 0 0.79 12.24 73.42 13.65 2 7.41 8.15
14:54 2 31 34 69,304 0 0 0.81 11.07 76.34 14.73 2 8.21 9.03
14:53 2 30.9 34 69,314 0 0 0.82 10.62 81.37 14.37 2 8.19 9.01
14:52 2 30.9 34 69,294 0 0 0.84 11.73 80.11 14.42 2 8.2 9.02
14:51 2 30.9 35 69,264 0 0 0.83 12.38 80.25 13.77 2 7.37 8.11
14:50 2 30.9 35 69,262 0 0 0.8 11.81 83.4 14.8 2.86 8.95 9.84
14:49 2 30.9 34 69,256 0 0 0.82 11.38 68.71 14.25 2.86 8.21 9.03
14:48 2 30.9 35 69,250 0 0 0.82 13.43 86.8 14.14 2.86 8.18 9
14:47 2 30.8 36 69,271 0 0 0.79 10.55 66.05 13.54 2 8.12 8.93
14:46 2 30.8 35 69,267 0 0 0.81 14.03 65.39 12.6 2 7.35 8.09
14:45 2 30.7 36 69,260 0 0 0.81 13.32 75.35 13.32 2.86 8.12 8.93